createdAt,value
2023-04-30T00:01:47.322Z,10.08
2023-04-30T00:06:51.605Z,10.04
2023-04-30T00:11:54.416Z,10.03
2023-04-30T00:16:57.253Z,10.04
2023-04-30T00:22:02.903Z,10.05
2023-04-30T00:27:05.864Z,10.03
2023-04-30T00:32:08.821Z,9.94
2023-04-30T00:37:13.123Z,9.90
2023-04-30T00:42:16.032Z,9.85
2023-04-30T00:47:18.808Z,9.81
2023-04-30T00:52:22.908Z,9.76
2023-04-30T00:57:26.261Z,9.73
2023-04-30T01:02:29.104Z,9.68
2023-04-30T01:07:33.555Z,9.64
2023-04-30T01:12:41.067Z,9.62
2023-04-30T01:17:49.318Z,9.60
2023-04-30T01:23:01.741Z,9.56
2023-04-30T01:28:09.517Z,9.51
2023-04-30T01:33:12.527Z,9.50
2023-04-30T01:38:22.237Z,9.43
2023-04-30T01:43:35.697Z,9.43
2023-04-30T01:48:46.319Z,9.36
2023-04-30T01:53:49.396Z,9.35
2023-04-30T01:58:54.176Z,9.32
2023-04-30T02:03:57.074Z,9.31
2023-04-30T02:09:03.495Z,9.30
2023-04-30T02:14:08.017Z,9.23
2023-04-30T02:19:11.204Z,9.27
2023-04-30T02:24:13.956Z,9.28
2023-04-30T02:29:18.406Z,9.22
2023-04-30T02:34:21.171Z,9.20
2023-04-30T02:39:24.230Z,9.13
2023-04-30T02:44:28.432Z,9.08
2023-04-30T02:49:31.228Z,9.03
2023-04-30T02:54:33.984Z,9.02
2023-04-30T02:59:38.850Z,9.05
2023-04-30T03:04:41.821Z,9.03
2023-04-30T03:09:44.876Z,8.99
2023-04-30T03:14:48.920Z,8.95
2023-04-30T03:19:51.770Z,8.92
2023-04-30T03:24:54.686Z,8.87
2023-04-30T03:29:58.877Z,8.84
2023-04-30T03:35:01.681Z,8.81
2023-04-30T03:40:05.554Z,8.87
2023-04-30T03:45:10.744Z,8.85
2023-04-30T03:50:13.663Z,8.79
2023-04-30T03:55:16.631Z,8.75
2023-04-30T04:00:21.135Z,8.72
2023-04-30T04:05:27.899Z,8.73
2023-04-30T04:10:30.815Z,8.75
2023-04-30T04:15:35.065Z,8.79
2023-04-30T04:20:39.969Z,8.84
2023-04-30T04:25:44.342Z,8.82
2023-04-30T04:30:49.326Z,8.80
2023-04-30T04:35:52.145Z,8.83
2023-04-30T04:40:56.636Z,8.79
2023-04-30T04:46:01.383Z,8.73
2023-04-30T04:51:05.784Z,8.69
2023-04-30T04:56:09.373Z,8.68
2023-04-30T05:01:13.886Z,8.75
2023-04-30T05:06:16.973Z,8.71
2023-04-30T05:11:19.803Z,8.77
2023-04-30T05:16:24.067Z,8.80
2023-04-30T05:21:29.651Z,8.88
2023-04-30T05:26:32.533Z,8.91
2023-04-30T05:31:36.930Z,8.96
2023-04-30T05:36:39.808Z,9.05
2023-04-30T05:41:42.705Z,9.15
2023-04-30T05:46:46.942Z,9.25
2023-04-30T05:51:49.776Z,9.42
2023-04-30T05:56:52.546Z,9.62
2023-04-30T06:01:56.773Z,9.95
2023-04-30T06:06:59.645Z,10.18
2023-04-30T06:12:02.845Z,10.41
2023-04-30T06:17:07.064Z,10.84
2023-04-30T06:22:09.987Z,11.05
2023-04-30T06:27:12.820Z,11.37
2023-04-30T06:32:16.988Z,11.54
2023-04-30T06:37:20.186Z,11.87
2023-04-30T06:42:23.044Z,12.11
2023-04-30T06:47:27.219Z,12.79
2023-04-30T06:52:30.817Z,12.86
2023-04-30T06:57:33.771Z,13.10
2023-04-30T07:02:38.085Z,13.05
2023-04-30T07:07:40.989Z,13.00
2023-04-30T07:12:43.744Z,13.13
2023-04-30T07:17:47.956Z,13.22
2023-04-30T07:22:51.088Z,13.33
2023-04-30T07:27:54.024Z,14.12
2023-04-30T07:32:58.599Z,14.93
2023-04-30T07:38:01.537Z,14.78
2023-04-30T07:43:05.080Z,15.27
2023-04-30T07:48:09.852Z,15.25
2023-04-30T07:53:12.904Z,15.73
2023-04-30T07:58:15.828Z,15.96
2023-04-30T08:03:20.705Z,15.85
2023-04-30T08:08:23.636Z,15.78
2023-04-30T08:13:26.438Z,16.11
2023-04-30T08:18:30.587Z,16.45
2023-04-30T08:23:33.709Z,15.60
2023-04-30T08:28:36.672Z,15.82
2023-04-30T08:33:43.742Z,15.76
2023-04-30T08:38:46.589Z,16.10
2023-04-30T08:43:49.879Z,15.97
2023-04-30T08:48:54.072Z,15.95
2023-04-30T08:53:58.401Z,16.27
2023-04-30T08:59:01.251Z,15.96
2023-04-30T09:04:06.579Z,16.16
2023-04-30T09:09:10.682Z,16.25
2023-04-30T09:14:13.917Z,16.33
2023-04-30T09:19:26.169Z,15.90
2023-04-30T09:24:46.993Z,15.96
2023-04-30T09:29:49.893Z,16.12
2023-04-30T09:34:54.354Z,16.16
2023-04-30T09:39:58.022Z,16.01
2023-04-30T09:45:00.936Z,16.65
2023-04-30T09:50:06.980Z,16.33
2023-04-30T09:55:10.693Z,16.32
2023-04-30T10:00:15.366Z,16.44
2023-04-30T10:05:19.974Z,16.37
2023-04-30T10:10:23.402Z,16.84
2023-04-30T10:15:28.039Z,16.77
2023-04-30T10:20:33.286Z,16.86
2023-04-30T10:25:36.781Z,17.09
2023-04-30T10:30:39.667Z,17.14
2023-04-30T10:35:48.227Z,17.02
2023-04-30T10:40:51.357Z,17.44
2023-04-30T10:45:54.444Z,17.31
2023-04-30T10:50:59.963Z,17.33
2023-04-30T10:56:07.322Z,17.21
2023-04-30T11:01:12.967Z,17.42
2023-04-30T11:06:20.432Z,17.01
2023-04-30T11:11:24.199Z,17.46
2023-04-30T11:16:30.806Z,17.70
2023-04-30T11:21:35.083Z,17.44
2023-04-30T11:27:14.776Z,17.62
2023-04-30T11:32:18.059Z,17.73
2023-04-30T11:37:24.716Z,17.93
2023-04-30T11:42:27.837Z,18.00
2023-04-30T11:47:40.147Z,17.76
2023-04-30T11:52:50.438Z,17.91
2023-04-30T11:57:55.704Z,17.81
2023-04-30T12:03:01.376Z,17.82
2023-04-30T12:08:07.930Z,17.96
2023-04-30T12:13:14.852Z,17.95
2023-04-30T12:18:17.663Z,17.97
2023-04-30T12:23:22.081Z,18.10
2023-04-30T12:28:25.359Z,17.98
2023-04-30T12:33:31.843Z,18.04
2023-04-30T12:38:35.981Z,18.18
2023-04-30T12:43:38.783Z,17.90
2023-04-30T12:48:45.800Z,18.08
2023-04-30T12:53:50.085Z,17.90
2023-04-30T12:58:52.881Z,18.04
2023-04-30T13:03:55.923Z,18.07
2023-04-30T13:09:00.346Z,18.35
2023-04-30T13:14:03.084Z,18.14
2023-04-30T13:19:06.674Z,18.20
2023-04-30T13:24:10.884Z,17.95
2023-04-30T13:29:13.664Z,18.29
2023-04-30T13:34:16.548Z,18.11
2023-04-30T13:39:21.596Z,18.18
2023-04-30T13:44:24.449Z,18.62
2023-04-30T13:49:27.286Z,18.23
2023-04-30T13:54:31.476Z,18.33
2023-04-30T13:59:34.519Z,18.71
2023-04-30T14:04:37.494Z,19.03
2023-04-30T14:09:41.671Z,19.01
2023-04-30T14:14:44.542Z,18.62
2023-04-30T14:19:47.486Z,18.55
2023-04-30T14:24:53.110Z,18.95
2023-04-30T14:29:56.245Z,19.13
2023-04-30T14:34:59.224Z,19.15
2023-04-30T14:40:05.129Z,18.57
2023-04-30T14:45:09.390Z,18.48
2023-04-30T14:50:12.165Z,18.90
2023-04-30T14:55:16.560Z,18.79
2023-04-30T15:00:19.577Z,18.73
2023-04-30T15:05:22.355Z,18.62
2023-04-30T15:10:26.546Z,18.92
2023-04-30T15:15:29.744Z,18.43
2023-04-30T15:20:32.899Z,18.58
2023-04-30T15:25:37.067Z,18.76
2023-04-30T15:30:39.865Z,18.78
2023-04-30T15:35:42.828Z,18.85
2023-04-30T15:40:46.950Z,18.75
2023-04-30T15:45:50.095Z,18.62
2023-04-30T15:50:52.894Z,18.85
2023-04-30T15:55:57.548Z,18.59
2023-04-30T16:01:01.329Z,18.66
2023-04-30T16:06:04.519Z,18.47
2023-04-30T16:11:09.798Z,18.29
2023-04-30T16:16:13.685Z,18.14
2023-04-30T16:21:17.128Z,18.36
2023-04-30T16:26:22.021Z,18.25
2023-04-30T16:31:24.846Z,18.07
2023-04-30T16:36:28.063Z,17.99
2023-04-30T16:41:32.426Z,18.20
2023-04-30T16:46:36.045Z,18.20
2023-04-30T16:51:39.110Z,18.22
2023-04-30T16:56:43.393Z,18.37
2023-04-30T17:01:46.616Z,18.37
2023-04-30T17:06:49.603Z,18.23
2023-04-30T17:11:53.936Z,18.17
2023-04-30T17:16:57.384Z,18.00
2023-04-30T17:22:00.380Z,18.00
2023-04-30T17:27:05.636Z,17.88
2023-04-30T17:32:11.116Z,17.55
2023-04-30T17:37:13.982Z,17.30
2023-04-30T17:42:18.661Z,17.31
2023-04-30T17:47:22.998Z,16.87
2023-04-30T17:52:26.143Z,16.97
2023-04-30T17:57:30.324Z,16.88
2023-04-30T18:02:33.783Z,16.85
2023-04-30T18:07:36.817Z,16.76
2023-04-30T18:12:41.978Z,16.37
2023-04-30T18:17:46.392Z,16.55
2023-04-30T18:22:49.364Z,16.45
2023-04-30T18:27:53.480Z,16.20
2023-04-30T18:32:56.409Z,16.41
2023-04-30T18:37:59.334Z,16.32
2023-04-30T18:43:03.754Z,16.02
2023-04-30T18:48:07.957Z,16.06
2023-04-30T18:53:10.896Z,15.95
2023-04-30T18:58:15.241Z,15.90
2023-04-30T19:03:18.117Z,15.58
2023-04-30T19:08:21.040Z,15.53
2023-04-30T19:13:25.264Z,15.48
2023-04-30T19:18:28.358Z,15.44
2023-04-30T19:23:31.621Z,15.40
2023-04-30T19:28:35.852Z,15.34
2023-04-30T19:33:40.979Z,15.31
2023-04-30T19:38:43.878Z,15.03
2023-04-30T19:43:48.031Z,15.03
2023-04-30T19:48:51.328Z,14.97
2023-04-30T19:53:54.919Z,14.94
2023-04-30T19:58:59.154Z,14.89
2023-04-30T20:04:02.119Z,14.77
2023-04-30T20:09:05.285Z,14.69
2023-04-30T20:14:09.531Z,14.58
2023-04-30T20:19:13.172Z,14.56
2023-04-30T20:24:16.000Z,14.47
2023-04-30T20:29:20.760Z,14.46
2023-04-30T20:34:24.111Z,14.38
2023-04-30T20:39:27.135Z,14.38
2023-04-30T20:44:31.364Z,14.36
2023-04-30T20:49:34.139Z,14.32
2023-04-30T20:54:36.912Z,14.26
2023-04-30T20:59:41.401Z,14.21
2023-04-30T21:04:44.438Z,14.11
2023-04-30T21:09:47.459Z,14.10
2023-04-30T21:14:51.992Z,14.08
2023-04-30T21:19:56.626Z,14.01
2023-04-30T21:24:59.858Z,13.97
2023-04-30T21:30:04.184Z,13.91
2023-04-30T21:35:07.721Z,13.84
2023-04-30T21:40:11.785Z,13.77
2023-04-30T21:45:16.029Z,13.77
2023-04-30T21:50:19.036Z,13.80
2023-04-30T21:55:22.160Z,13.85
2023-04-30T22:00:26.735Z,13.86
2023-04-30T22:05:29.585Z,13.85
2023-04-30T22:10:33.119Z,13.95
2023-04-30T22:15:47.559Z,13.96
2023-04-30T22:20:51.997Z,13.92
2023-04-30T22:25:54.854Z,13.86
2023-04-30T22:31:02.476Z,13.88
2023-04-30T22:36:06.257Z,13.83
2023-04-30T22:41:09.206Z,13.79
2023-04-30T22:46:13.756Z,13.71
2023-04-30T22:51:17.223Z,13.65
2023-04-30T22:56:20.878Z,13.60
2023-04-30T23:01:25.102Z,13.56
2023-04-30T23:06:29.379Z,13.50
2023-04-30T23:11:32.243Z,13.46
2023-04-30T23:16:39.994Z,13.39
2023-04-30T23:21:43.202Z,13.35
2023-04-30T23:26:47.189Z,13.30
2023-04-30T23:31:53.802Z,13.28
2023-04-30T23:36:57.006Z,13.26
2023-04-30T23:41:59.791Z,13.14
2023-04-30T23:47:03.989Z,13.07
2023-04-30T23:52:07.008Z,13.01
2023-04-30T23:57:10.278Z,12.98
